Speed, Missouri
Current Conditions -  °F | °C
As of 3:55 AM on Sunday 23 Nov 2014 (Local Time) from KVER Reporting Station
Overcast Overcast  
Wind Chill: 55°   Ceiling: 8000
Heat Index: 55°   Visibility: 10mi
Dew Point: 51°   Wind: 12mph
Humidity: 85%   Direction: 150°SSE
Pressure: 29.64"   Gusts: NA
Location:  38.8814°N, 92.7602°W
Report Text: KVER 230955Z AUTO 15010KT 10SM SCT040 SCT070 OVC080 13/11 A2964 RMK AO2 T01300106
Loading
Personal Weather Stations






























Interactive Weather Map New forecast layout! Learn more

10-Day Weather Forecast

Advertisements
Track Severe Weather on mobile